Time;durP1;ratioP1;P1;durP2;ratioP2;P2;SDS_P1;SDS_P2;PMS_P1;PMS_P2;Temp;Humidity;BMP_temperature;BMP_pressure;BME280_temperature;BME280_humidity;BME280_pressure;Samples;Min_cycle;Max_cycle;Signal;HPM_P1;HPM_P2
2023/12/22 00:01:52;;;;;;;2.25;0.70;;;;;;;;;;5054556;28;20029;-59
2023/12/22 00:04:18;;;;;;;1.10;0.50;;;;;;;;;;5054613;28;20316;-58
2023/12/22 00:06:44;;;;;;;1.27;0.77;;;;;;;;;;5053974;28;20040;-58
2023/12/22 00:09:10;;;;;;;1.92;0.70;;;;;;;;;;5054545;28;20523;-59
2023/12/22 00:11:36;;;;;;;2.63;0.60;;;;;;;;;;5053898;28;20115;-59
2023/12/22 00:14:02;;;;;;;1.50;0.63;;;;;;;;;;5054114;28;20486;-57
2023/12/22 00:16:28;;;;;;;3.95;0.93;;;;;;;;;;5054075;28;20507;-59
2023/12/22 00:18:54;;;;;;;7.25;1.08;;;;;;;;;;5054025;28;20033;-58
2023/12/22 00:21:20;;;;;;;3.78;1.17;;;;;;;;;;5054300;28;20108;-58
2023/12/22 00:23:46;;;;;;;3.42;0.95;;;;;;;;;;5053695;28;20122;-58
2023/12/22 00:26:12;;;;;;;4.55;1.33;;;;;;;;;;5053684;28;20024;-59
2023/12/22 00:28:38;;;;;;;3.75;1.30;;;;;;;;;;5053342;28;20380;-59
2023/12/22 00:31:04;;;;;;;3.72;1.23;;;;;;;;;;5052898;28;20066;-58
2023/12/22 00:33:33;;;;;;;7.47;2.33;;;;;;;;;;5053558;28;20032;-58
2023/12/22 00:35:59;;;;;;;8.02;1.25;;;;;;;;;;5054052;28;20017;-59
2023/12/22 00:38:25;;;;;;;5.95;1.25;;;;;;;;;;5053329;28;20025;-58
2023/12/22 00:40:51;;;;;;;5.00;1.42;;;;;;;;;;5054007;28;20057;-57
2023/12/22 00:43:17;;;;;;;3.28;1.10;;;;;;;;;;5053500;28;20025;-58
2023/12/22 00:45:43;;;;;;;1.80;0.90;;;;;;;;;;5053228;28;20494;-59
2023/12/22 00:48:08;;;;;;;6.07;1.00;;;;;;;;;;5054188;28;20029;-59
2023/12/22 00:50:34;;;;;;;4.32;1.35;;;;;;;;;;5053447;28;20086;-59
2023/12/22 00:53:00;;;;;;;4.90;1.33;;;;;;;;;;5053455;28;20029;-59
2023/12/22 00:55:26;;;;;;;3.13;1.27;;;;;;;;;;5053397;28;20092;-59
2023/12/22 00:57:52;;;;;;;2.00;0.63;;;;;;;;;;5053934;28;20414;-59
2023/12/22 01:00:18;;;;;;;3.53;1.05;;;;;;;;;;5053354;28;20041;-63
2023/12/22 01:02:44;;;;;;;4.95;0.73;;;;;;;;;;5053591;28;20025;-59
2023/12/22 01:05:10;;;;;;;4.00;1.67;;;;;;;;;;5053240;28;20024;-59
2023/12/22 01:07:36;;;;;;;3.95;0.80;;;;;;;;;;5053832;28;20033;-59
2023/12/22 01:10:03;;;;;;;3.85;1.13;;;;;;;;;;5052971;28;20025;-59
2023/12/22 01:12:29;;;;;;;2.17;0.55;;;;;;;;;;5053228;28;20029;-58
2023/12/22 01:14:56;;;;;;;2.33;0.77;;;;;;;;;;5053248;28;20120;-59
2023/12/22 01:17:22;;;;;;;3.53;1.10;;;;;;;;;;5053488;28;20048;-59
2023/12/22 01:19:48;;;;;;;2.15;1.08;;;;;;;;;;5053050;28;20040;-59
2023/12/22 01:22:14;;;;;;;1.58;0.63;;;;;;;;;;5053094;28;20017;-59
2023/12/22 01:24:43;;;;;;;4.90;1.33;;;;;;;;;;5053637;28;20025;-58
2023/12/22 01:27:09;;;;;;;2.85;1.25;;;;;;;;;;5054239;28;20033;-58
2023/12/22 01:29:35;;;;;;;3.15;1.42;;;;;;;;;;5053561;28;20029;-58
2023/12/22 01:32:01;;;;;;;2.20;1.02;;;;;;;;;;5052714;28;20514;-58
2023/12/22 01:34:26;;;;;;;5.15;1.55;;;;;;;;;;5053460;28;20036;-57
2023/12/22 01:36:52;;;;;;;2.67;1.42;;;;;;;;;;5052979;28;20025;-59
2023/12/22 01:39:18;;;;;;;2.63;1.05;;;;;;;;;;5053042;28;20033;-59
2023/12/22 01:41:44;;;;;;;4.95;1.02;;;;;;;;;;5055792;28;20060;-59
2023/12/22 01:44:10;;;;;;;5.80;0.70;;;;;;;;;;5056637;28;20075;-59
2023/12/22 01:46:36;;;;;;;2.13;0.77;;;;;;;;;;5056660;28;20029;-58
2023/12/22 01:49:02;;;;;;;5.72;1.02;;;;;;;;;;5055666;28;20095;-57
2023/12/22 01:51:33;;;;;;;2.38;0.73;;;;;;;;;;5057104;28;20033;-58
2023/12/22 01:53:59;;;;;;;1.85;0.52;;;;;;;;;;5057234;28;20029;-58
2023/12/22 01:56:25;;;;;;;1.92;0.57;;;;;;;;;;5056984;28;20056;-57
2023/12/22 01:58:53;;;;;;;2.55;0.80;;;;;;;;;;5056237;28;20104;-58
2023/12/22 02:01:20;;;;;;;0.80;0.25;;;;;;;;;;5056357;28;20381;-58
2023/12/22 02:03:47;;;;;;;3.50;1.00;;;;;;;;;;5056295;28;20060;-58
2023/12/22 02:06:13;;;;;;;0.93;0.40;;;;;;;;;;5056712;28;20143;-59
2023/12/22 02:08:39;;;;;;;2.13;0.30;;;;;;;;;;5056828;28;20106;-59
2023/12/22 02:11:05;;;;;;;1.33;0.50;;;;;;;;;;5056080;28;20367;-58
2023/12/22 02:13:31;;;;;;;3.42;0.50;;;;;;;;;;5056050;28;20035;-58
2023/12/22 02:16:01;;;;;;;3.40;0.57;;;;;;;;;;5056515;28;20048;-58
2023/12/22 02:18:31;;;;;;;2.00;0.50;;;;;;;;;;5056271;28;20036;-58
2023/12/22 02:20:57;;;;;;;1.52;0.68;;;;;;;;;;5055941;28;20075;-58
2023/12/22 02:23:23;;;;;;;1.67;0.70;;;;;;;;;;5056367;28;20024;-54
2023/12/22 02:25:52;;;;;;;2.13;0.80;;;;;;;;;;5056038;28;20025;-58
2023/12/22 02:28:20;;;;;;;1.92;0.68;;;;;;;;;;5056221;28;20467;-58
2023/12/22 02:30:57;;;;;;;0.93;0.30;;;;;;;;;;5056348;28;20052;-58
2023/12/22 02:33:23;;;;;;;1.27;0.45;;;;;;;;;;5055971;28;20021;-58
2023/12/22 02:35:50;;;;;;;2.60;0.50;;;;;;;;;;5055591;28;20025;-58
2023/12/22 02:38:17;;;;;;;1.10;0.43;;;;;;;;;;5056146;28;20036;-58
2023/12/22 02:40:43;;;;;;;2.25;0.65;;;;;;;;;;5055931;28;20029;-57
2023/12/22 02:43:10;;;;;;;2.38;0.50;;;;;;;;;;5055527;28;20070;-57
2023/12/22 02:45:36;;;;;;;2.13;0.70;;;;;;;;;;5055522;28;20072;-58
2023/12/22 02:48:02;;;;;;;3.80;1.20;;;;;;;;;;5055935;28;20021;-55
2023/12/22 02:50:28;;;;;;;1.63;0.63;;;;;;;;;;5055565;28;20036;-57
2023/12/22 02:52:53;;;;;;;0.93;0.43;;;;;;;;;;5054607;28;20051;-58
2023/12/22 02:55:19;;;;;;;1.67;0.70;;;;;;;;;;5055783;28;20375;-58
2023/12/22 02:57:45;;;;;;;1.88;0.98;;;;;;;;;;5055153;28;20028;-59
2023/12/22 03:00:12;;;;;;;8.65;1.20;;;;;;;;;;5054809;28;20086;-57
2023/12/22 03:02:37;;;;;;;1.38;0.65;;;;;;;;;;5054725;28;20100;-58
2023/12/22 03:05:04;;;;;;;1.60;0.45;;;;;;;;;;5055033;28;20032;-58
2023/12/22 03:07:30;;;;;;;1.08;0.60;;;;;;;;;;5055189;28;20082;-58
2023/12/22 03:09:56;;;;;;;2.80;0.63;;;;;;;;;;5055522;28;20033;-57
2023/12/22 03:12:22;;;;;;;1.50;0.77;;;;;;;;;;5054987;28;20032;-57
2023/12/22 03:14:48;;;;;;;2.97;0.73;;;;;;;;;;5055266;28;20515;-57
2023/12/22 03:17:14;;;;;;;2.75;0.70;;;;;;;;;;5055519;28;20024;-57
2023/12/22 03:19:40;;;;;;;4.13;0.55;;;;;;;;;;5055225;28;20371;-58
2023/12/22 03:22:06;;;;;;;2.60;0.55;;;;;;;;;;5054800;28;20032;-58
2023/12/22 03:24:33;;;;;;;1.20;0.50;;;;;;;;;;5054982;28;20359;-57
2023/12/22 03:26:59;;;;;;;2.38;0.77;;;;;;;;;;5055229;28;20029;-58
2023/12/22 03:29:25;;;;;;;1.30;0.65;;;;;;;;;;5054436;28;20032;-58
2023/12/22 03:31:51;;;;;;;2.60;0.57;;;;;;;;;;5054598;28;20375;-56
2023/12/22 03:34:17;;;;;;;1.60;0.70;;;;;;;;;;5054626;28;20076;-58
2023/12/22 03:36:42;;;;;;;2.47;1.10;;;;;;;;;;5054633;28;20029;-56
2023/12/22 03:39:09;;;;;;;2.15;0.47;;;;;;;;;;5055246;28;20039;-56
2023/12/22 03:41:35;;;;;;;1.88;0.80;;;;;;;;;;5054097;28;20087;-57
2023/12/22 03:44:01;;;;;;;5.90;1.60;;;;;;;;;;5054961;28;20028;-57
2023/12/22 03:46:27;;;;;;;2.58;1.20;;;;;;;;;;5054137;28;20025;-57
2023/12/22 03:48:53;;;;;;;3.92;0.95;;;;;;;;;;5054897;28;20025;-56
2023/12/22 03:51:19;;;;;;;2.20;0.85;;;;;;;;;;5053953;28;20021;-57
2023/12/22 03:53:45;;;;;;;1.33;0.70;;;;;;;;;;5054785;28;20516;-58
2023/12/22 03:56:11;;;;;;;1.38;0.65;;;;;;;;;;5054535;28;20049;-58
2023/12/22 03:58:37;;;;;;;2.20;0.98;;;;;;;;;;5054200;28;20025;-57
2023/12/22 04:01:04;;;;;;;4.28;0.85;;;;;;;;;;5054723;28;20028;-58
2023/12/22 04:03:29;;;;;;;4.97;0.80;;;;;;;;;;5054263;28;20028;-57
2023/12/22 04:05:55;;;;;;;6.68;1.08;;;;;;;;;;5054214;28;20395;-58
2023/12/22 04:08:21;;;;;;;0.85;0.45;;;;;;;;;;5054482;28;20367;-58
2023/12/22 04:10:48;;;;;;;5.60;0.75;;;;;;;;;;5053868;28;20463;-58
2023/12/22 04:13:14;;;;;;;6.38;0.80;;;;;;;;;;5053568;28;20101;-58
2023/12/22 04:15:39;;;;;;;6.28;1.20;;;;;;;;;;5053785;28;20150;-56
2023/12/22 04:18:06;;;;;;;1.77;0.47;;;;;;;;;;5054192;28;20035;-59
2023/12/22 04:20:32;;;;;;;2.13;1.05;;;;;;;;;;5053775;28;20033;-58
2023/12/22 04:22:58;;;;;;;2.72;0.90;;;;;;;;;;5053754;28;20029;-58
2023/12/22 04:25:25;;;;;;;7.15;1.55;;;;;;;;;;5054571;28;20068;-57
2023/12/22 04:27:51;;;;;;;6.50;0.80;;;;;;;;;;5054330;28;20032;-59
2023/12/22 04:30:17;;;;;;;4.20;0.90;;;;;;;;;;5054013;28;20029;-58
2023/12/22 04:32:42;;;;;;;3.85;1.17;;;;;;;;;;5053659;28;20083;-58
2023/12/22 04:35:08;;;;;;;2.58;0.70;;;;;;;;;;5054291;28;20489;-58
2023/12/22 04:37:34;;;;;;;6.47;1.17;;;;;;;;;;5054024;28;20512;-57
2023/12/22 04:40:00;;;;;;;2.63;1.42;;;;;;;;;;5053787;28;20363;-58
2023/12/22 04:42:27;;;;;;;4.75;1.05;;;;;;;;;;5053546;28;20068;-58
2023/12/22 04:44:53;;;;;;;3.10;0.73;;;;;;;;;;5053291;28;20497;-57
2023/12/22 04:47:19;;;;;;;5.18;1.02;;;;;;;;;;5054374;28;20036;-58
2023/12/22 04:49:44;;;;;;;4.10;1.27;;;;;;;;;;5053623;28;20029;-58
2023/12/22 04:52:13;;;;;;;2.03;0.73;;;;;;;;;;5053176;28;20104;-58
2023/12/22 04:54:39;;;;;;;2.28;0.73;;;;;;;;;;5053274;28;20029;-59
2023/12/22 04:57:05;;;;;;;3.03;0.85;;;;;;;;;;5053788;28;20435;-58
2023/12/22 04:59:31;;;;;;;1.75;0.73;;;;;;;;;;5053995;28;20033;-57
2023/12/22 05:01:58;;;;;;;0.50;0.30;;;;;;;;;;5053206;28;20029;-58
2023/12/22 05:04:24;;;;;;;1.00;0.57;;;;;;;;;;5053372;28;20036;-58
2023/12/22 05:06:50;;;;;;;2.88;0.70;;;;;;;;;;5053184;28;20028;-57
2023/12/22 05:09:16;;;;;;;1.25;0.57;;;;;;;;;;5053955;28;20029;-57
2023/12/22 05:11:42;;;;;;;1.27;0.55;;;;;;;;;;5054178;28;20494;-57
2023/12/22 05:14:08;;;;;;;1.33;0.65;;;;;;;;;;5053839;28;20359;-57
2023/12/22 05:16:34;;;;;;;2.65;0.82;;;;;;;;;;5055646;28;20025;-57
2023/12/22 05:19:00;;;;;;;2.50;0.95;;;;;;;;;;5057528;28;20033;-57
2023/12/22 05:21:27;;;;;;;4.30;1.23;;;;;;;;;;5057237;28;20029;-58
2023/12/22 05:23:53;;;;;;;3.28;1.00;;;;;;;;;;5057632;28;20025;-58
2023/12/22 05:26:20;;;;;;;2.88;0.93;;;;;;;;;;5057838;28;20440;-56
2023/12/22 05:28:46;;;;;;;5.13;1.45;;;;;;;;;;5057092;28;20036;-55
2023/12/22 05:31:12;;;;;;;1.40;0.82;;;;;;;;;;5057039;28;20025;-58
2023/12/22 05:33:38;;;;;;;7.95;1.23;;;;;;;;;;5056894;28;20021;-58
2023/12/22 05:36:04;;;;;;;2.33;1.08;;;;;;;;;;5057350;28;20032;-58
2023/12/22 05:38:30;;;;;;;6.43;1.42;;;;;;;;;;5056669;28;20108;-58
2023/12/22 05:40:56;;;;;;;5.28;1.52;;;;;;;;;;5056743;28;20048;-58
2023/12/22 05:43:22;;;;;;;7.13;1.60;;;;;;;;;;5056959;28;20025;-59
2023/12/22 05:45:48;;;;;;;7.75;1.83;;;;;;;;;;5056601;28;20025;-57
2023/12/22 05:48:14;;;;;;;4.03;1.52;;;;;;;;;;5056326;28;20032;-57
2023/12/22 05:50:40;;;;;;;5.32;1.38;;;;;;;;;;5056622;28;20036;-58
2023/12/22 05:53:06;;;;;;;6.50;1.85;;;;;;;;;;5056609;28;20114;-58
2023/12/22 05:55:32;;;;;;;2.67;1.05;;;;;;;;;;5056640;28;20053;-57
2023/12/22 05:57:58;;;;;;;3.53;1.20;;;;;;;;;;5056451;28;20025;-57
2023/12/22 06:00:24;;;;;;;3.28;1.38;;;;;;;;;;5056964;28;20132;-56
2023/12/22 06:02:50;;;;;;;3.33;0.73;;;;;;;;;;5056695;28;20029;-58
2023/12/22 06:05:16;;;;;;;6.22;1.35;;;;;;;;;;5056852;28;20378;-58
2023/12/22 06:07:42;;;;;;;3.28;1.38;;;;;;;;;;5056923;28;20108;-55
2023/12/22 06:10:09;;;;;;;3.83;1.17;;;;;;;;;;5055957;28;20036;-58
2023/12/22 06:12:35;;;;;;;3.22;1.15;;;;;;;;;;5056251;28;20029;-56
2023/12/22 06:15:01;;;;;;;4.88;1.35;;;;;;;;;;5056185;28;20029;-58
2023/12/22 06:17:27;;;;;;;5.82;1.48;;;;;;;;;;5055849;28;20025;-58
2023/12/22 06:19:53;;;;;;;3.08;1.00;;;;;;;;;;5056365;28;20041;-58
2023/12/22 06:22:19;;;;;;;1.88;1.20;;;;;;;;;;5056060;28;20459;-58
2023/12/22 06:24:45;;;;;;;6.68;1.33;;;;;;;;;;5056809;28;20439;-58
2023/12/22 06:27:11;;;;;;;2.03;0.95;;;;;;;;;;5055954;28;20029;-58
2023/12/22 06:29:37;;;;;;;6.55;1.58;;;;;;;;;;5055904;28;20071;-58
2023/12/22 06:32:05;;;;;;;3.47;1.35;;;;;;;;;;5055905;28;20021;-58
2023/12/22 06:34:31;;;;;;;3.25;1.40;;;;;;;;;;5055794;28;20186;-58
2023/12/22 06:36:57;;;;;;;5.03;1.92;;;;;;;;;;5055363;28;20482;-57
2023/12/22 06:39:23;;;;;;;6.57;0.88;;;;;;;;;;5055357;28;20502;-58
2023/12/22 06:41:50;;;;;;;2.85;1.58;;;;;;;;;;5055625;28;20025;-58
2023/12/22 06:44:16;;;;;;;5.85;1.15;;;;;;;;;;5055953;28;20470;-58
2023/12/22 06:46:42;;;;;;;2.75;0.90;;;;;;;;;;5056096;28;20087;-56
2023/12/22 06:49:08;;;;;;;6.35;1.42;;;;;;;;;;5056147;28;20029;-57
2023/12/22 06:51:34;;;;;;;5.70;1.13;;;;;;;;;;5055294;28;20021;-58
2023/12/22 06:54:01;;;;;;;4.38;1.05;;;;;;;;;;5055479;28;20029;-58
2023/12/22 06:56:27;;;;;;;3.95;1.35;;;;;;;;;;5055690;28;20128;-59
2023/12/22 06:58:55;;;;;;;6.10;1.23;;;;;;;;;;5055330;28;20025;-56
2023/12/22 07:01:34;;;;;;;7.57;0.85;;;;;;;;;;5055356;28;20086;-56
2023/12/22 07:04:00;;;;;;;3.28;1.50;;;;;;;;;;5055838;28;20029;-57
2023/12/22 07:06:28;;;;;;;2.78;0.93;;;;;;;;;;5055220;28;20029;-56
2023/12/22 07:08:57;;;;;;;3.35;0.65;;;;;;;;;;5055830;28;20167;-57
2023/12/22 07:11:23;;;;;;;2.78;0.73;;;;;;;;;;5055496;28;20417;-56
2023/12/22 07:13:49;;;;;;;5.72;1.05;;;;;;;;;;5055604;28;20107;-56
2023/12/22 07:16:15;;;;;;;3.08;1.08;;;;;;;;;;5054871;28;20028;-56
2023/12/22 07:18:41;;;;;;;2.15;0.77;;;;;;;;;;5055242;28;20021;-57
2023/12/22 07:21:07;;;;;;;5.88;1.35;;;;;;;;;;5055500;28;20017;-57
2023/12/22 07:23:33;;;;;;;3.33;1.30;;;;;;;;;;5055092;28;20447;-56
2023/12/22 07:25:59;;;;;;;10.07;1.30;;;;;;;;;;5055221;28;20025;-57
2023/12/22 07:28:26;;;;;;;6.50;1.23;;;;;;;;;;5055010;28;20021;-56
2023/12/22 07:30:53;;;;;;;4.70;0.88;;;;;;;;;;5054918;28;20079;-57
2023/12/22 07:33:19;;;;;;;3.17;1.17;;;;;;;;;;5055325;28;20111;-55
2023/12/22 07:35:45;;;;;;;4.63;1.80;;;;;;;;;;5055071;28;20059;-57
2023/12/22 07:38:11;;;;;;;1.88;0.80;;;;;;;;;;5054769;28;20033;-57
2023/12/22 07:40:37;;;;;;;3.70;1.38;;;;;;;;;;5055192;28;20348;-56
2023/12/22 07:43:03;;;;;;;5.28;1.13;;;;;;;;;;5055223;28;20028;-57
2023/12/22 07:45:29;;;;;;;4.35;1.08;;;;;;;;;;5054573;28;20028;-57
2023/12/22 07:47:55;;;;;;;4.43;1.55;;;;;;;;;;5055070;28;20102;-55
2023/12/22 07:50:21;;;;;;;2.35;1.00;;;;;;;;;;5054584;28;20036;-57
2023/12/22 07:52:47;;;;;;;4.28;1.23;;;;;;;;;;5054437;28;20039;-57
2023/12/22 07:55:13;;;;;;;4.05;1.23;;;;;;;;;;5054429;28;20048;-56
2023/12/22 07:57:39;;;;;;;4.22;1.17;;;;;;;;;;5054002;28;20029;-58
2023/12/22 08:00:06;;;;;;;2.22;0.98;;;;;;;;;;5054147;28;20037;-57
2023/12/22 08:02:32;;;;;;;1.58;0.88;;;;;;;;;;5054325;28;20033;-57
2023/12/22 08:04:58;;;;;;;6.60;0.80;;;;;;;;;;5054518;28;20029;-57
2023/12/22 08:07:24;;;;;;;4.38;1.40;;;;;;;;;;5054633;28;20025;-57
2023/12/22 08:09:50;;;;;;;4.25;1.25;;;;;;;;;;5054750;28;20423;-58
2023/12/22 08:12:16;;;;;;;8.45;0.95;;;;;;;;;;5054314;28;20056;-57
2023/12/22 08:14:42;;;;;;;3.20;0.95;;;;;;;;;;5054196;28;20021;-57
2023/12/22 08:17:08;;;;;;;3.83;1.00;;;;;;;;;;5054498;28;20029;-56
2023/12/22 08:19:34;;;;;;;4.07;1.08;;;;;;;;;;5053654;28;20094;-57
2023/12/22 08:22:00;;;;;;;1.85;0.77;;;;;;;;;;5054262;28;20036;-56
2023/12/22 08:24:26;;;;;;;4.95;1.08;;;;;;;;;;5054324;28;20025;-56
2023/12/22 08:26:52;;;;;;;4.68;1.55;;;;;;;;;;5054234;28;20033;-57
2023/12/22 08:29:19;;;;;;;1.48;0.63;;;;;;;;;;5053683;28;20399;-57
2023/12/22 08:31:45;;;;;;;7.43;1.60;;;;;;;;;;5054142;28;20036;-57
2023/12/22 08:34:11;;;;;;;5.03;2.05;;;;;;;;;;5054117;28;20029;-57
2023/12/22 08:36:37;;;;;;;3.42;1.30;;;;;;;;;;5054283;28;20534;-57
2023/12/22 08:39:05;;;;;;;7.93;1.85;;;;;;;;;;5054189;28;20340;-57
2023/12/22 08:41:35;;;;;;;7.97;1.83;;;;;;;;;;5054052;28;20434;-56
2023/12/22 08:44:01;;;;;;;5.05;1.45;;;;;;;;;;5053745;28;20082;-57
2023/12/22 08:46:27;;;;;;;3.22;1.15;;;;;;;;;;5053507;28;20029;-55
2023/12/22 08:48:53;;;;;;;4.00;1.52;;;;;;;;;;5054315;28;20033;-57
2023/12/22 08:51:19;;;;;;;3.78;1.35;;;;;;;;;;5055761;28;20060;-57
2023/12/22 08:53:45;;;;;;;7.47;1.65;;;;;;;;;;5058126;28;20064;-56
2023/12/22 08:56:11;;;;;;;6.90;1.52;;;;;;;;;;5058268;28;20045;-57
2023/12/22 08:58:37;;;;;;;5.07;1.45;;;;;;;;;;5057672;28;20060;-57
2023/12/22 09:01:03;;;;;;;7.03;1.63;;;;;;;;;;5058257;28;20064;-57
2023/12/22 09:03:30;;;;;;;4.10;1.45;;;;;;;;;;5057883;28;20032;-56
2023/12/22 09:05:56;;;;;;;4.00;1.42;;;;;;;;;;5057607;28;20025;-56
2023/12/22 09:08:22;;;;;;;8.60;1.85;;;;;;;;;;5057346;28;20431;-57
2023/12/22 09:10:49;;;;;;;10.18;1.90;;;;;;;;;;5057841;28;20064;-57
2023/12/22 09:13:15;;;;;;;3.85;1.33;;;;;;;;;;5058249;28;20032;-57
2023/12/22 09:15:41;;;;;;;3.45;1.50;;;;;;;;;;5058062;28;20029;-57
2023/12/22 09:18:07;;;;;;;7.78;2.10;;;;;;;;;;5057368;28;20029;-56
2023/12/22 09:20:33;;;;;;;7.88;1.55;;;;;;;;;;5057090;28;20033;-55
2023/12/22 09:22:59;;;;;;;7.95;2.15;;;;;;;;;;5057832;28;20402;-57
2023/12/22 09:25:26;;;;;;;11.40;2.33;;;;;;;;;;5057962;28;20091;-57
2023/12/22 09:27:52;;;;;;;3.05;1.58;;;;;;;;;;5057481;28;20499;-57
2023/12/22 09:30:18;;;;;;;5.32;1.77;;;;;;;;;;5057885;28;20059;-56
2023/12/22 09:32:44;;;;;;;7.63;2.45;;;;;;;;;;5056780;28;20028;-55
2023/12/22 09:35:09;;;;;;;8.18;1.95;;;;;;;;;;5056990;28;20037;-53
2023/12/22 09:37:35;;;;;;;6.00;2.70;;;;;;;;;;5057457;28;20112;-55
2023/12/22 09:40:01;;;;;;;7.50;1.73;;;;;;;;;;5056898;28;20451;-56
2023/12/22 09:42:27;;;;;;;5.68;1.77;;;;;;;;;;5057163;28;20055;-57
2023/12/22 09:44:54;;;;;;;3.45;1.70;;;;;;;;;;5057360;28;20021;-56
2023/12/22 09:47:21;;;;;;;7.30;1.92;;;;;;;;;;5057530;28;20029;-57
2023/12/22 09:49:48;;;;;;;8.40;1.88;;;;;;;;;;5056794;28;20033;-56
2023/12/22 09:52:14;;;;;;;5.45;2.10;;;;;;;;;;5056807;28;20029;-56
2023/12/22 09:54:40;;;;;;;6.40;1.73;;;;;;;;;;5056650;28;20021;-57
2023/12/22 09:57:07;;;;;;;5.65;2.67;;;;;;;;;;5056648;28;20100;-57
2023/12/22 09:59:33;;;;;;;6.15;2.03;;;;;;;;;;5056195;28;20529;-57
2023/12/22 10:02:00;;;;;;;5.00;1.27;;;;;;;;;;5056287;28;20142;-57
2023/12/22 10:04:26;;;;;;;4.53;1.70;;;;;;;;;;5056452;28;20032;-57
2023/12/22 10:06:54;;;;;;;6.22;1.92;;;;;;;;;;5056597;28;20378;-56
2023/12/22 10:09:20;;;;;;;7.80;2.33;;;;;;;;;;5056989;28;20036;-55
2023/12/22 10:11:49;;;;;;;6.63;2.47;;;;;;;;;;5056291;28;20540;-57
2023/12/22 10:14:21;;;;;;;2.60;1.45;;;;;;;;;;5056374;28;20090;-54
2023/12/22 10:16:47;;;;;;;8.43;2.17;;;;;;;;;;5056630;28;20033;-57
2023/12/22 10:19:13;;;;;;;9.18;1.92;;;;;;;;;;5056632;28;20120;-58
2023/12/22 10:21:39;;;;;;;8.65;1.80;;;;;;;;;;5055761;28;20060;-57
2023/12/22 10:24:05;;;;;;;5.90;1.77;;;;;;;;;;5055585;28;20032;-56
2023/12/22 10:26:31;;;;;;;9.10;2.50;;;;;;;;;;5055883;28;20031;-57
2023/12/22 10:28:57;;;;;;;5.45;2.22;;;;;;;;;;5056733;28;20112;-57
2023/12/22 10:31:23;;;;;;;3.60;1.60;;;;;;;;;;5056248;28;20025;-57
2023/12/22 10:33:49;;;;;;;7.55;1.75;;;;;;;;;;5055836;28;20021;-56
2023/12/22 10:36:15;;;;;;;9.63;2.30;;;;;;;;;;5056072;28;20040;-57
2023/12/22 10:38:43;;;;;;;6.15;2.17;;;;;;;;;;5055605;28;20031;-57
2023/12/22 10:41:08;;;;;;;5.00;2.00;;;;;;;;;;5055701;28;20041;-57
2023/12/22 10:43:41;;;;;;;6.18;2.17;;;;;;;;;;5055547;28;20025;-57
2023/12/22 10:46:11;;;;;;;6.97;1.73;;;;;;;;;;5055762;28;20037;-56
2023/12/22 10:48:36;;;;;;;3.72;1.70;;;;;;;;;;5056236;28;20512;-57
2023/12/22 10:51:02;;;;;;;5.30;1.67;;;;;;;;;;5055632;28;20115;-57
2023/12/22 10:53:29;;;;;;;8.90;2.83;;;;;;;;;;5055293;28;20036;-57
2023/12/22 10:55:54;;;;;;;4.65;1.55;;;;;;;;;;5055830;28;20041;-57
2023/12/22 10:58:21;;;;;;;4.53;1.77;;;;;;;;;;5055327;28;20025;-57
2023/12/22 11:00:48;;;;;;;4.95;1.58;;;;;;;;;;5055940;28;20040;-57
2023/12/22 11:03:20;;;;;;;4.20;1.10;;;;;;;;;;5055319;28;20352;-56
2023/12/22 11:05:48;;;;;;;9.75;1.70;;;;;;;;;;5055966;28;20021;-58
2023/12/22 11:08:15;;;;;;;4.55;1.40;;;;;;;;;;5055960;28;20083;-58
2023/12/22 11:10:43;;;;;;;5.75;1.20;;;;;;;;;;5055719;28;20524;-57
2023/12/22 11:13:10;;;;;;;2.67;1.20;;;;;;;;;;5054804;28;20056;-58
2023/12/22 11:15:36;;;;;;;6.53;1.33;;;;;;;;;;5055361;28;20037;-58
2023/12/22 11:18:02;;;;;;;5.18;1.23;;;;;;;;;;5055513;28;20029;-58
2023/12/22 11:20:32;;;;;;;4.22;1.42;;;;;;;;;;5054763;28;20033;-58
2023/12/22 11:22:58;;;;;;;2.72;0.75;;;;;;;;;;5054972;28;20032;-58
2023/12/22 11:25:25;;;;;;;3.80;0.98;;;;;;;;;;5055532;28;20020;-57
2023/12/22 11:27:53;;;;;;;5.78;1.02;;;;;;;;;;5055327;28;20021;-57
2023/12/22 11:30:20;;;;;;;4.47;0.95;;;;;;;;;;5055695;28;20040;-57
2023/12/22 11:32:46;;;;;;;1.75;0.73;;;;;;;;;;5054590;28;20041;-57
2023/12/22 11:35:13;;;;;;;1.65;0.80;;;;;;;;;;5054959;28;20029;-58
2023/12/22 11:37:39;;;;;;;3.55;1.05;;;;;;;;;;5055259;28;20463;-56
2023/12/22 11:40:06;;;;;;;1.85;0.70;;;;;;;;;;5054316;28;20033;-58
2023/12/22 11:42:38;;;;;;;2.10;0.80;;;;;;;;;;5054448;28;20022;-58
2023/12/22 11:45:06;;;;;;;3.80;0.60;;;;;;;;;;5055383;28;20037;-58
2023/12/22 11:47:33;;;;;;;2.03;0.70;;;;;;;;;;5055249;28;20036;-58
2023/12/22 11:49:59;;;;;;;5.43;1.40;;;;;;;;;;5055101;28;20063;-58
2023/12/22 11:52:28;;;;;;;1.10;0.52;;;;;;;;;;5054120;28;20546;-57
2023/12/22 11:54:55;;;;;;;2.17;0.75;;;;;;;;;;5054443;28;20453;-57
2023/12/22 11:57:27;;;;;;;2.28;1.20;;;;;;;;;;5054702;28;20026;-58
2023/12/22 11:59:52;;;;;;;3.92;0.93;;;;;;;;;;5054372;28;20052;-58
2023/12/22 12:02:20;;;;;;;5.88;1.23;;;;;;;;;;5053920;28;20067;-58
2023/12/22 12:04:48;;;;;;;4.45;1.02;;;;;;;;;;5054115;28;20029;-58
2023/12/22 12:07:40;;;;;;;1.73;0.50;;;;;;;;;;5054894;28;20052;-57
2023/12/22 12:10:07;;;;;;;0.85;0.50;;;;;;;;;;5053592;28;20107;-57
2023/12/22 12:12:34;;;;;;;1.52;0.55;;;;;;;;;;5054362;28;20036;-56
2023/12/22 12:15:07;;;;;;;1.88;0.70;;;;;;;;;;5054092;28;20094;-55
2023/12/22 12:17:33;;;;;;;2.40;1.15;;;;;;;;;;5054978;28;20032;-58
2023/12/22 12:19:59;;;;;;;0.93;0.43;;;;;;;;;;5053977;28;20033;-56
2023/12/22 12:22:26;;;;;;;1.10;0.47;;;;;;;;;;5053933;28;20061;-55
2023/12/22 12:24:52;;;;;;;1.25;0.70;;;;;;;;;;5054410;28;20082;-57
2023/12/22 12:27:19;;;;;;;3.55;0.60;;;;;;;;;;5054307;28;20029;-57
2023/12/22 12:29:45;;;;;;;3.25;0.75;;;;;;;;;;5054349;28;20128;-57
2023/12/22 12:32:15;;;;;;;2.33;0.60;;;;;;;;;;5053895;28;20025;-57
2023/12/22 12:34:43;;;;;;;0.45;0.30;;;;;;;;;;5053756;28;20120;-57
2023/12/22 12:37:09;;;;;;;0.85;0.35;;;;;;;;;;5053741;28;20111;-56
2023/12/22 12:39:36;;;;;;;1.70;0.57;;;;;;;;;;5053667;28;20037;-55
2023/12/22 12:42:05;;;;;;;4.03;0.70;;;;;;;;;;5053647;28;20033;-57
2023/12/22 12:44:34;;;;;;;1.27;0.60;;;;;;;;;;5053649;28;20109;-57
2023/12/22 12:47:00;;;;;;;2.50;0.63;;;;;;;;;;5054214;28;20029;-57
2023/12/22 12:49:29;;;;;;;0.70;0.45;;;;;;;;;;5054174;28;20395;-56
2023/12/22 12:51:55;;;;;;;1.65;0.43;;;;;;;;;;5053536;28;20106;-56
2023/12/22 12:54:21;;;;;;;0.85;0.40;;;;;;;;;;5053908;28;20029;-57
2023/12/22 12:56:48;;;;;;;1.77;0.65;;;;;;;;;;5054477;28;20049;-57
2023/12/22 12:59:15;;;;;;;1.52;0.70;;;;;;;;;;5053675;28;20037;-54
2023/12/22 13:01:42;;;;;;;0.52;0.25;;;;;;;;;;5054059;28;20053;-55
2023/12/22 13:04:07;;;;;;;2.88;0.50;;;;;;;;;;5053565;28;20031;-56
2023/12/22 13:06:34;;;;;;;2.08;0.50;;;;;;;;;;5053280;28;20108;-56
2023/12/22 13:09:00;;;;;;;2.08;0.50;;;;;;;;;;5054047;28;20407;-56
2023/12/22 13:11:27;;;;;;;1.42;0.63;;;;;;;;;;5053417;28;20022;-56
2023/12/22 13:13:53;;;;;;;0.60;0.25;;;;;;;;;;5054178;28;20025;-55
2023/12/22 13:16:22;;;;;;;1.15;0.60;;;;;;;;;;5053124;28;20478;-55
2023/12/22 13:18:49;;;;;;;1.20;0.52;;;;;;;;;;5053949;28;20026;-56
2023/12/22 13:21:15;;;;;;;1.02;0.40;;;;;;;;;;5052902;28;20432;-55
2023/12/22 13:23:41;;;;;;;3.53;0.55;;;;;;;;;;5053849;28;20028;-57
2023/12/22 13:26:18;;;;;;;0.90;0.50;;;;;;;;;;5053002;28;20487;-56
2023/12/22 13:28:43;;;;;;;1.90;0.47;;;;;;;;;;5053876;28;20049;-55
2023/12/22 13:31:18;;;;;;;0.57;0.28;;;;;;;;;;5053891;28;20370;-56
2023/12/22 13:33:44;;;;;;;0.98;0.40;;;;;;;;;;5053543;28;20017;-57
2023/12/22 13:36:10;;;;;;;0.85;0.40;;;;;;;;;;5053617;28;20464;-56
2023/12/22 13:38:36;;;;;;;2.13;0.60;;;;;;;;;;5057597;28;20056;-57
2023/12/22 13:41:08;;;;;;;0.25;0.20;;;;;;;;;;5057460;28;20378;-57
2023/12/22 13:43:34;;;;;;;2.00;0.20;;;;;;;;;;5056853;28;20497;-57
2023/12/22 13:46:00;;;;;;;0.57;0.25;;;;;;;;;;5057487;28;20072;-56
2023/12/22 13:48:26;;;;;;;0.17;0.10;;;;;;;;;;5056802;28;20058;-57
2023/12/22 13:50:59;;;;;;;0.20;0.10;;;;;;;;;;5056784;28;20032;-57
2023/12/22 13:53:25;;;;;;;0.50;0.10;;;;;;;;;;5057108;28;20057;-56
2023/12/22 13:55:57;;;;;;;0.50;0.17;;;;;;;;;;5056599;28;20037;-56
2023/12/22 13:58:23;;;;;;;0.63;0.20;;;;;;;;;;5057081;28;20112;-57
2023/12/22 14:00:50;;;;;;;0.17;0.10;;;;;;;;;;5056432;28;20082;-56
2023/12/22 14:03:25;;;;;;;0.30;0.10;;;;;;;;;;5056631;28;20073;-56
2023/12/22 14:05:53;;;;;;;0.55;0.20;;;;;;;;;;5055825;28;20025;-55
2023/12/22 14:08:19;;;;;;;1.42;0.20;;;;;;;;;;5057168;28;20025;-56
2023/12/22 14:10:48;;;;;;;0.30;0.13;;;;;;;;;;5056439;28;20029;-57
2023/12/22 14:13:14;;;;;;;0.10;0.10;;;;;;;;;;5056413;28;20024;-57
2023/12/22 14:15:44;;;;;;;0.60;0.20;;;;;;;;;;5056326;28;20022;-56
2023/12/22 14:18:10;;;;;;;0.68;0.28;;;;;;;;;;5056867;28;20021;-56
2023/12/22 14:20:36;;;;;;;0.32;0.20;;;;;;;;;;5056022;28;20035;-57
2023/12/22 14:23:02;;;;;;;0.43;0.10;;;;;;;;;;5056171;28;20025;-57
2023/12/22 14:25:28;;;;;;;0.98;0.28;;;;;;;;;;5055992;28;20375;-56
2023/12/22 14:27:57;;;;;;;0.15;0.10;;;;;;;;;;5055904;28;20471;-57
2023/12/22 14:30:23;;;;;;;0.57;0.30;;;;;;;;;;5056455;28;20145;-57
2023/12/22 14:32:49;;;;;;;1.20;0.40;;;;;;;;;;5056053;28;20029;-58
2023/12/22 14:35:15;;;;;;;0.47;0.20;;;;;;;;;;5056006;28;20481;-56
2023/12/22 14:37:42;;;;;;;0.40;0.20;;;;;;;;;;5055963;28;20103;-57
2023/12/22 14:40:09;;;;;;;0.20;0.10;;;;;;;;;;5055668;28;20082;-57